sensor_id;sensor_type;location;lat;lon;timestamp;P1;durP1;ratioP1;P2;durP2;ratioP2
50549;SDS011;36505;52.512;13.460;2023-07-08T00:00:22;9.00;;;4.00;;
50549;SDS011;36505;52.512;13.460;2023-07-08T00:02:49;8.00;;;4.68;;
50549;SDS011;36505;52.512;13.460;2023-07-08T00:05:16;11.82;;;5.43;;
50549;SDS011;36505;52.512;13.460;2023-07-08T00:07:43;9.18;;;4.53;;
50549;SDS011;36505;52.512;13.460;2023-07-08T00:10:19;8.13;;;4.03;;
50549;SDS011;36505;52.512;13.460;2023-07-08T00:12:51;12.88;;;4.22;;
50549;SDS011;36505;52.512;13.460;2023-07-08T00:15:18;6.27;;;3.23;;
50549;SDS011;36505;52.512;13.460;2023-07-08T00:17:51;20.02;;;4.15;;
50549;SDS011;36505;52.512;13.460;2023-07-08T00:20:26;5.85;;;3.63;;
50549;SDS011;36505;52.512;13.460;2023-07-08T00:23:01;9.70;;;4.20;;
50549;SDS011;36505;52.512;13.460;2023-07-08T00:25:27;6.40;;;3.60;;
50549;SDS011;36505;52.512;13.460;2023-07-08T00:27:53;8.32;;;3.30;;
50549;SDS011;36505;52.512;13.460;2023-07-08T00:30:28;7.22;;;3.92;;
50549;SDS011;36505;52.512;13.460;2023-07-08T00:32:55;6.00;;;4.03;;
50549;SDS011;36505;52.512;13.460;2023-07-08T00:40:48;5.50;;;3.70;;
50549;SDS011;36505;52.512;13.460;2023-07-08T00:43:15;6.80;;;3.78;;
50549;SDS011;36505;52.512;13.460;2023-07-08T00:45:45;6.78;;;3.88;;
50549;SDS011;36505;52.512;13.460;2023-07-08T00:48:23;7.85;;;3.70;;
50549;SDS011;36505;52.512;13.460;2023-07-08T00:50:53;7.28;;;4.20;;
50549;SDS011;36505;52.512;13.460;2023-07-08T00:55:58;9.68;;;4.32;;
50549;SDS011;36505;52.512;13.460;2023-07-08T00:58:30;6.33;;;3.70;;
50549;SDS011;36505;52.512;13.460;2023-07-08T01:01:00;6.63;;;3.30;;
50549;SDS011;36505;52.512;13.460;2023-07-08T01:03:28;10.07;;;4.07;;
50549;SDS011;36505;52.512;13.460;2023-07-08T01:05:54;9.57;;;3.97;;
50549;SDS011;36505;52.512;13.460;2023-07-08T01:08:25;10.50;;;4.50;;
50549;SDS011;36505;52.512;13.460;2023-07-08T01:10:55;7.15;;;3.83;;
50549;SDS011;36505;52.512;13.460;2023-07-08T01:15:52;8.05;;;3.33;;
50549;SDS011;36505;52.512;13.460;2023-07-08T01:18:18;8.07;;;4.20;;
50549;SDS011;36505;52.512;13.460;2023-07-08T01:20:46;7.75;;;4.30;;
50549;SDS011;36505;52.512;13.460;2023-07-08T01:23:12;9.40;;;3.80;;
50549;SDS011;36505;52.512;13.460;2023-07-08T01:25:38;5.13;;;3.05;;
50549;SDS011;36505;52.512;13.460;2023-07-08T01:28:06;7.05;;;3.95;;
50549;SDS011;36505;52.512;13.460;2023-07-08T01:30:32;5.57;;;3.47;;
50549;SDS011;36505;52.512;13.460;2023-07-08T01:32:59;7.03;;;3.42;;
50549;SDS011;36505;52.512;13.460;2023-07-08T01:35:29;5.23;;;3.53;;
50549;SDS011;36505;52.512;13.460;2023-07-08T01:37:56;5.40;;;3.60;;
50549;SDS011;36505;52.512;13.460;2023-07-08T01:42:56;6.93;;;3.20;;
50549;SDS011;36505;52.512;13.460;2023-07-08T01:45:23;6.25;;;3.35;;
50549;SDS011;36505;52.512;13.460;2023-07-08T01:47:51;6.22;;;3.30;;
50549;SDS011;36505;52.512;13.460;2023-07-08T01:50:21;8.98;;;3.03;;
50549;SDS011;36505;52.512;13.460;2023-07-08T01:52:48;6.10;;;3.42;;
50549;SDS011;36505;52.512;13.460;2023-07-08T01:55:15;8.55;;;3.78;;
50549;SDS011;36505;52.512;13.460;2023-07-08T01:57:46;7.20;;;3.50;;
50549;SDS011;36505;52.512;13.460;2023-07-08T02:00:11;11.63;;;3.20;;
50549;SDS011;36505;52.512;13.460;2023-07-08T02:02:37;5.75;;;3.30;;
50549;SDS011;36505;52.512;13.460;2023-07-08T02:05:03;4.88;;;3.25;;
50549;SDS011;36505;52.512;13.460;2023-07-08T02:07:28;8.10;;;3.78;;
50549;SDS011;36505;52.512;13.460;2023-07-08T02:09:54;9.00;;;3.53;;
50549;SDS011;36505;52.512;13.460;2023-07-08T02:12:19;5.88;;;3.50;;
50549;SDS011;36505;52.512;13.460;2023-07-08T02:14:44;6.75;;;3.60;;
50549;SDS011;36505;52.512;13.460;2023-07-08T02:17:10;6.82;;;3.38;;
50549;SDS011;36505;52.512;13.460;2023-07-08T02:19:35;6.85;;;3.78;;
50549;SDS011;36505;52.512;13.460;2023-07-08T02:22:00;9.23;;;4.05;;
50549;SDS011;36505;52.512;13.460;2023-07-08T02:24:26;9.07;;;4.63;;
50549;SDS011;36505;52.512;13.460;2023-07-08T02:26:51;8.75;;;3.90;;
50549;SDS011;36505;52.512;13.460;2023-07-08T02:29:17;7.18;;;4.00;;
50549;SDS011;36505;52.512;13.460;2023-07-08T02:31:42;7.95;;;3.38;;
50549;SDS011;36505;52.512;13.460;2023-07-08T02:34:08;7.38;;;3.38;;
50549;SDS011;36505;52.512;13.460;2023-07-08T02:36:33;7.50;;;3.85;;
50549;SDS011;36505;52.512;13.460;2023-07-08T02:38:59;13.88;;;3.60;;
50549;SDS011;36505;52.512;13.460;2023-07-08T02:41:25;6.85;;;3.92;;
50549;SDS011;36505;52.512;13.460;2023-07-08T02:43:50;10.38;;;3.65;;
50549;SDS011;36505;52.512;13.460;2023-07-08T02:46:15;5.68;;;4.00;;
50549;SDS011;36505;52.512;13.460;2023-07-08T02:48:41;9.68;;;4.80;;
50549;SDS011;36505;52.512;13.460;2023-07-08T02:51:06;6.88;;;2.90;;
50549;SDS011;36505;52.512;13.460;2023-07-08T02:53:33;7.00;;;3.95;;
50549;SDS011;36505;52.512;13.460;2023-07-08T02:55:59;7.85;;;3.53;;
50549;SDS011;36505;52.512;13.460;2023-07-08T02:58:25;5.47;;;3.28;;
50549;SDS011;36505;52.512;13.460;2023-07-08T03:00:53;5.05;;;3.33;;
50549;SDS011;36505;52.512;13.460;2023-07-08T03:03:20;5.00;;;3.10;;
50549;SDS011;36505;52.512;13.460;2023-07-08T03:05:55;5.60;;;2.90;;
50549;SDS011;36505;52.512;13.460;2023-07-08T03:08:21;6.45;;;3.30;;
50549;SDS011;36505;52.512;13.460;2023-07-08T03:10:54;4.65;;;3.03;;
50549;SDS011;36505;52.512;13.460;2023-07-08T03:13:24;7.53;;;3.10;;
50549;SDS011;36505;52.512;13.460;2023-07-08T03:15:50;5.45;;;3.20;;
50549;SDS011;36505;52.512;13.460;2023-07-08T03:18:16;7.78;;;3.28;;
50549;SDS011;36505;52.512;13.460;2023-07-08T03:20:42;7.28;;;3.50;;
50549;SDS011;36505;52.512;13.460;2023-07-08T03:23:11;8.10;;;3.42;;
50549;SDS011;36505;52.512;13.460;2023-07-08T03:25:37;7.15;;;2.92;;
50549;SDS011;36505;52.512;13.460;2023-07-08T03:28:03;5.72;;;3.10;;
50549;SDS011;36505;52.512;13.460;2023-07-08T03:30:39;4.15;;;2.70;;
50549;SDS011;36505;52.512;13.460;2023-07-08T03:33:04;8.73;;;3.45;;
50549;SDS011;36505;52.512;13.460;2023-07-08T03:35:30;4.65;;;2.90;;
50549;SDS011;36505;52.512;13.460;2023-07-08T03:37:56;6.65;;;3.60;;
50549;SDS011;36505;52.512;13.460;2023-07-08T03:40:21;7.97;;;3.30;;
50549;SDS011;36505;52.512;13.460;2023-07-08T03:42:47;5.88;;;2.90;;
50549;SDS011;36505;52.512;13.460;2023-07-08T03:45:12;7.32;;;3.35;;
50549;SDS011;36505;52.512;13.460;2023-07-08T03:47:37;4.85;;;2.90;;
50549;SDS011;36505;52.512;13.460;2023-07-08T03:50:03;4.53;;;2.90;;
50549;SDS011;36505;52.512;13.460;2023-07-08T03:52:28;4.88;;;2.65;;
50549;SDS011;36505;52.512;13.460;2023-07-08T03:54:54;5.55;;;2.67;;
50549;SDS011;36505;52.512;13.460;2023-07-08T03:57:19;8.07;;;3.00;;
50549;SDS011;36505;52.512;13.460;2023-07-08T03:59:44;5.93;;;3.15;;
50549;SDS011;36505;52.512;13.460;2023-07-08T04:02:10;4.53;;;2.92;;
50549;SDS011;36505;52.512;13.460;2023-07-08T04:04:36;9.60;;;3.25;;
50549;SDS011;36505;52.512;13.460;2023-07-08T04:07:03;5.50;;;3.08;;
50549;SDS011;36505;52.512;13.460;2023-07-08T04:09:29;5.70;;;2.90;;
50549;SDS011;36505;52.512;13.460;2023-07-08T04:11:54;4.50;;;2.97;;
50549;SDS011;36505;52.512;13.460;2023-07-08T04:14:20;6.25;;;3.22;;
50549;SDS011;36505;52.512;13.460;2023-07-08T04:16:47;6.82;;;2.90;;
50549;SDS011;36505;52.512;13.460;2023-07-08T04:19:16;7.90;;;2.80;;
50549;SDS011;36505;52.512;13.460;2023-07-08T04:21:42;5.60;;;3.00;;
50549;SDS011;36505;52.512;13.460;2023-07-08T04:24:12;5.05;;;3.38;;
50549;SDS011;36505;52.512;13.460;2023-07-08T04:26:40;8.55;;;2.97;;
50549;SDS011;36505;52.512;13.460;2023-07-08T04:29:10;8.63;;;3.22;;
50549;SDS011;36505;52.512;13.460;2023-07-08T04:31:36;4.75;;;3.58;;
50549;SDS011;36505;52.512;13.460;2023-07-08T04:34:02;5.90;;;2.83;;
50549;SDS011;36505;52.512;13.460;2023-07-08T04:36:27;5.47;;;3.22;;
50549;SDS011;36505;52.512;13.460;2023-07-08T04:38:52;9.32;;;3.70;;
50549;SDS011;36505;52.512;13.460;2023-07-08T04:41:18;8.20;;;3.03;;
50549;SDS011;36505;52.512;13.460;2023-07-08T04:43:43;10.70;;;3.22;;
50549;SDS011;36505;52.512;13.460;2023-07-08T04:49:02;6.68;;;3.83;;
50549;SDS011;36505;52.512;13.460;2023-07-08T04:51:28;6.93;;;3.40;;
50549;SDS011;36505;52.512;13.460;2023-07-08T04:53:54;5.85;;;3.28;;
50549;SDS011;36505;52.512;13.460;2023-07-08T04:56:19;7.85;;;3.30;;
50549;SDS011;36505;52.512;13.460;2023-07-08T04:58:44;6.45;;;3.30;;
50549;SDS011;36505;52.512;13.460;2023-07-08T05:01:10;5.75;;;2.88;;
50549;SDS011;36505;52.512;13.460;2023-07-08T05:03:35;6.75;;;3.80;;
50549;SDS011;36505;52.512;13.460;2023-07-08T05:06:01;14.25;;;5.97;;
50549;SDS011;36505;52.512;13.460;2023-07-08T05:08:29;11.57;;;3.28;;
50549;SDS011;36505;52.512;13.460;2023-07-08T05:10:55;5.53;;;3.15;;
50549;SDS011;36505;52.512;13.460;2023-07-08T05:13:20;4.30;;;3.15;;
50549;SDS011;36505;52.512;13.460;2023-07-08T05:15:47;9.43;;;5.50;;
50549;SDS011;36505;52.512;13.460;2023-07-08T05:18:13;4.80;;;3.45;;
50549;SDS011;36505;52.512;13.460;2023-07-08T05:20:39;5.63;;;3.63;;
50549;SDS011;36505;52.512;13.460;2023-07-08T05:23:04;9.27;;;3.53;;
50549;SDS011;36505;52.512;13.460;2023-07-08T05:25:32;5.90;;;3.60;;
50549;SDS011;36505;52.512;13.460;2023-07-08T05:27:58;7.68;;;4.65;;
50549;SDS011;36505;52.512;13.460;2023-07-08T05:30:24;9.18;;;4.93;;
50549;SDS011;36505;52.512;13.460;2023-07-08T05:32:49;4.80;;;3.28;;
50549;SDS011;36505;52.512;13.460;2023-07-08T05:35:14;8.70;;;4.10;;
50549;SDS011;36505;52.512;13.460;2023-07-08T05:37:40;6.05;;;3.33;;
50549;SDS011;36505;52.512;13.460;2023-07-08T05:40:06;7.03;;;3.83;;
50549;SDS011;36505;52.512;13.460;2023-07-08T05:42:33;6.97;;;3.75;;
50549;SDS011;36505;52.512;13.460;2023-07-08T05:44:58;8.50;;;3.95;;
50549;SDS011;36505;52.512;13.460;2023-07-08T05:47:24;4.65;;;3.03;;
50549;SDS011;36505;52.512;13.460;2023-07-08T05:49:50;7.60;;;3.55;;
50549;SDS011;36505;52.512;13.460;2023-07-08T05:52:15;5.40;;;3.15;;
50549;SDS011;36505;52.512;13.460;2023-07-08T05:54:41;9.05;;;5.75;;
50549;SDS011;36505;52.512;13.460;2023-07-08T05:57:07;5.85;;;3.30;;
50549;SDS011;36505;52.512;13.460;2023-07-08T05:59:34;8.20;;;2.80;;
50549;SDS011;36505;52.512;13.460;2023-07-08T06:02:01;7.18;;;2.80;;
50549;SDS011;36505;52.512;13.460;2023-07-08T06:04:27;5.50;;;2.78;;
50549;SDS011;36505;52.512;13.460;2023-07-08T06:06:53;5.18;;;3.03;;
50549;SDS011;36505;52.512;13.460;2023-07-08T06:09:18;8.52;;;3.00;;
50549;SDS011;36505;52.512;13.460;2023-07-08T06:11:43;10.85;;;3.20;;
50549;SDS011;36505;52.512;13.460;2023-07-08T06:14:09;9.93;;;3.50;;
50549;SDS011;36505;52.512;13.460;2023-07-08T06:16:34;6.68;;;2.80;;
50549;SDS011;36505;52.512;13.460;2023-07-08T06:19:00;4.93;;;2.60;;
50549;SDS011;36505;52.512;13.460;2023-07-08T06:21:25;6.90;;;2.70;;
50549;SDS011;36505;52.512;13.460;2023-07-08T06:23:51;4.60;;;2.83;;
50549;SDS011;36505;52.512;13.460;2023-07-08T06:26:16;3.53;;;2.50;;
50549;SDS011;36505;52.512;13.460;2023-07-08T06:28:42;4.32;;;2.80;;
50549;SDS011;36505;52.512;13.460;2023-07-08T06:31:07;6.15;;;2.83;;
50549;SDS011;36505;52.512;13.460;2023-07-08T06:33:33;3.83;;;2.40;;
50549;SDS011;36505;52.512;13.460;2023-07-08T06:35:58;5.85;;;2.60;;
50549;SDS011;36505;52.512;13.460;2023-07-08T06:38:23;5.28;;;3.15;;
50549;SDS011;36505;52.512;13.460;2023-07-08T06:40:49;5.30;;;2.63;;
50549;SDS011;36505;52.512;13.460;2023-07-08T06:43:14;4.97;;;3.03;;
50549;SDS011;36505;52.512;13.460;2023-07-08T06:45:40;12.95;;;3.15;;
50549;SDS011;36505;52.512;13.460;2023-07-08T06:48:06;5.05;;;2.40;;
50549;SDS011;36505;52.512;13.460;2023-07-08T06:50:31;5.45;;;2.65;;
50549;SDS011;36505;52.512;13.460;2023-07-08T06:52:57;4.05;;;2.38;;
50549;SDS011;36505;52.512;13.460;2023-07-08T06:55:23;5.30;;;2.65;;
50549;SDS011;36505;52.512;13.460;2023-07-08T06:57:48;4.20;;;2.60;;
50549;SDS011;36505;52.512;13.460;2023-07-08T07:00:14;4.13;;;2.58;;
50549;SDS011;36505;52.512;13.460;2023-07-08T07:02:39;9.20;;;2.95;;
50549;SDS011;36505;52.512;13.460;2023-07-08T07:05:05;4.28;;;2.45;;
50549;SDS011;36505;52.512;13.460;2023-07-08T07:07:31;9.45;;;2.50;;
50549;SDS011;36505;52.512;13.460;2023-07-08T07:09:56;4.75;;;2.65;;
50549;SDS011;36505;52.512;13.460;2023-07-08T07:12:23;4.82;;;2.67;;
50549;SDS011;36505;52.512;13.460;2023-07-08T07:14:49;5.47;;;3.20;;
50549;SDS011;36505;52.512;13.460;2023-07-08T07:17:17;9.13;;;3.83;;
50549;SDS011;36505;52.512;13.460;2023-07-08T07:19:43;3.78;;;2.75;;
50549;SDS011;36505;52.512;13.460;2023-07-08T07:22:08;4.90;;;2.63;;
50549;SDS011;36505;52.512;13.460;2023-07-08T07:24:34;8.75;;;3.20;;
50549;SDS011;36505;52.512;13.460;2023-07-08T07:26:59;4.90;;;2.50;;
50549;SDS011;36505;52.512;13.460;2023-07-08T07:29:25;5.07;;;3.00;;
50549;SDS011;36505;52.512;13.460;2023-07-08T07:31:50;3.38;;;2.33;;
50549;SDS011;36505;52.512;13.460;2023-07-08T07:34:16;5.07;;;2.83;;
50549;SDS011;36505;52.512;13.460;2023-07-08T07:36:42;8.18;;;2.83;;
50549;SDS011;36505;52.512;13.460;2023-07-08T07:39:07;10.00;;;2.60;;
50549;SDS011;36505;52.512;13.460;2023-07-08T07:41:33;7.10;;;3.22;;
50549;SDS011;36505;52.512;13.460;2023-07-08T07:43:58;7.85;;;2.55;;
50549;SDS011;36505;52.512;13.460;2023-07-08T07:46:24;5.32;;;2.20;;
50549;SDS011;36505;52.512;13.460;2023-07-08T07:48:49;7.80;;;2.38;;
50549;SDS011;36505;52.512;13.460;2023-07-08T07:51:15;5.20;;;2.25;;
50549;SDS011;36505;52.512;13.460;2023-07-08T07:53:40;6.38;;;2.15;;
50549;SDS011;36505;52.512;13.460;2023-07-08T07:56:06;4.75;;;2.25;;
50549;SDS011;36505;52.512;13.460;2023-07-08T07:58:32;3.90;;;3.00;;
50549;SDS011;36505;52.512;13.460;2023-07-08T08:00:57;5.40;;;2.10;;
50549;SDS011;36505;52.512;13.460;2023-07-08T08:03:23;8.57;;;2.58;;
50549;SDS011;36505;52.512;13.460;2023-07-08T08:05:50;6.28;;;2.55;;
50549;SDS011;36505;52.512;13.460;2023-07-08T08:08:15;2.53;;;1.60;;
50549;SDS011;36505;52.512;13.460;2023-07-08T08:10:44;3.78;;;2.20;;
50549;SDS011;36505;52.512;13.460;2023-07-08T08:13:10;3.80;;;2.25;;
50549;SDS011;36505;52.512;13.460;2023-07-08T08:15:36;3.70;;;2.25;;
50549;SDS011;36505;52.512;13.460;2023-07-08T08:18:02;6.28;;;2.65;;
50549;SDS011;36505;52.512;13.460;2023-07-08T08:20:28;4.82;;;2.80;;
50549;SDS011;36505;52.512;13.460;2023-07-08T08:22:54;6.25;;;2.20;;
50549;SDS011;36505;52.512;13.460;2023-07-08T08:25:20;4.72;;;2.38;;
50549;SDS011;36505;52.512;13.460;2023-07-08T08:27:47;3.42;;;2.10;;
50549;SDS011;36505;52.512;13.460;2023-07-08T08:30:12;7.88;;;2.08;;
50549;SDS011;36505;52.512;13.460;2023-07-08T08:32:38;8.18;;;2.15;;
50549;SDS011;36505;52.512;13.460;2023-07-08T08:35:04;7.10;;;2.72;;
50549;SDS011;36505;52.512;13.460;2023-07-08T08:37:30;3.40;;;2.30;;
50549;SDS011;36505;52.512;13.460;2023-07-08T08:39:55;7.25;;;2.60;;
50549;SDS011;36505;52.512;13.460;2023-07-08T08:42:34;5.25;;;2.60;;
50549;SDS011;36505;52.512;13.460;2023-07-08T08:45:05;4.63;;;2.20;;
50549;SDS011;36505;52.512;13.460;2023-07-08T08:52:56;2.88;;;2.05;;
50549;SDS011;36505;52.512;13.460;2023-07-08T08:55:24;5.25;;;2.20;;
50549;SDS011;36505;52.512;13.460;2023-07-08T09:00:46;7.22;;;2.35;;
50549;SDS011;36505;52.512;13.460;2023-07-08T09:03:24;5.15;;;2.40;;
50549;SDS011;36505;52.512;13.460;2023-07-08T09:06:07;4.72;;;2.00;;
50549;SDS011;36505;52.512;13.460;2023-07-08T09:08:36;3.28;;;2.20;;
50549;SDS011;36505;52.512;13.460;2023-07-08T09:11:17;6.05;;;1.88;;
50549;SDS011;36505;52.512;13.460;2023-07-08T09:13:49;4.65;;;2.03;;
50549;SDS011;36505;52.512;13.460;2023-07-08T09:19:15;3.72;;;2.50;;
50549;SDS011;36505;52.512;13.460;2023-07-08T09:24:43;7.00;;;1.85;;
50549;SDS011;36505;52.512;13.460;2023-07-08T09:27:14;2.47;;;1.75;;
50549;SDS011;36505;52.512;13.460;2023-07-08T09:29:40;8.68;;;1.90;;
50549;SDS011;36505;52.512;13.460;2023-07-08T09:32:11;3.67;;;2.10;;
50549;SDS011;36505;52.512;13.460;2023-07-08T09:34:42;6.90;;;2.17;;
50549;SDS011;36505;52.512;13.460;2023-07-08T09:37:21;3.45;;;1.80;;
50549;SDS011;36505;52.512;13.460;2023-07-08T09:39:52;5.05;;;1.90;;
50549;SDS011;36505;52.512;13.460;2023-07-08T09:42:18;2.88;;;1.98;;
50549;SDS011;36505;52.512;13.460;2023-07-08T09:44:47;4.05;;;1.60;;
50549;SDS011;36505;52.512;13.460;2023-07-08T09:47:22;4.30;;;1.88;;
50549;SDS011;36505;52.512;13.460;2023-07-08T09:49:56;3.60;;;2.10;;
50549;SDS011;36505;52.512;13.460;2023-07-08T09:52:22;3.58;;;1.70;;
50549;SDS011;36505;52.512;13.460;2023-07-08T09:55:10;8.52;;;1.85;;
50549;SDS011;36505;52.512;13.460;2023-07-08T09:57:36;4.45;;;2.22;;
50549;SDS011;36505;52.512;13.460;2023-07-08T10:00:06;10.15;;;2.78;;
50549;SDS011;36505;52.512;13.460;2023-07-08T10:02:46;6.80;;;2.10;;
50549;SDS011;36505;52.512;13.460;2023-07-08T10:08:23;4.00;;;1.85;;
50549;SDS011;36505;52.512;13.460;2023-07-08T10:10:52;6.10;;;2.63;;
50549;SDS011;36505;52.512;13.460;2023-07-08T10:18:39;7.10;;;1.67;;
50549;SDS011;36505;52.512;13.460;2023-07-08T10:21:08;13.98;;;2.38;;
50549;SDS011;36505;52.512;13.460;2023-07-08T10:26:27;3.72;;;1.80;;
50549;SDS011;36505;52.512;13.460;2023-07-08T10:35:04;5.97;;;1.80;;
50549;SDS011;36505;52.512;13.460;2023-07-08T10:40:19;3.30;;;2.03;;
50549;SDS011;36505;52.512;13.460;2023-07-08T10:42:51;2.55;;;1.88;;
50549;SDS011;36505;52.512;13.460;2023-07-08T10:57:31;7.80;;;2.22;;
50549;SDS011;36505;52.512;13.460;2023-07-08T11:05:20;7.72;;;2.30;;
50549;SDS011;36505;52.512;13.460;2023-07-08T11:11:15;4.63;;;2.45;;
50549;SDS011;36505;52.512;13.460;2023-07-08T11:13:50;4.95;;;2.30;;
50549;SDS011;36505;52.512;13.460;2023-07-08T11:16:33;6.47;;;2.25;;
50549;SDS011;36505;52.512;13.460;2023-07-08T11:19:05;6.05;;;2.85;;
50549;SDS011;36505;52.512;13.460;2023-07-08T11:21:54;5.95;;;3.40;;
50549;SDS011;36505;52.512;13.460;2023-07-08T11:27:11;4.55;;;2.50;;
50549;SDS011;36505;52.512;13.460;2023-07-08T11:30:04;4.13;;;2.40;;
50549;SDS011;36505;52.512;13.460;2023-07-08T11:32:37;3.00;;;2.00;;
50549;SDS011;36505;52.512;13.460;2023-07-08T11:35:04;3.70;;;2.17;;
50549;SDS011;36505;52.512;13.460;2023-07-08T11:37:32;3.97;;;2.20;;
50549;SDS011;36505;52.512;13.460;2023-07-08T11:40:09;3.70;;;1.83;;
50549;SDS011;36505;52.512;13.460;2023-07-08T11:42:54;5.05;;;2.17;;
50549;SDS011;36505;52.512;13.460;2023-07-08T11:45:31;6.05;;;2.20;;
50549;SDS011;36505;52.512;13.460;2023-07-08T11:48:06;5.28;;;2.10;;
50549;SDS011;36505;52.512;13.460;2023-07-08T11:50:44;3.22;;;2.15;;
50549;SDS011;36505;52.512;13.460;2023-07-08T11:53:30;5.32;;;2.20;;
50549;SDS011;36505;52.512;13.460;2023-07-08T12:03:39;4.28;;;2.10;;
50549;SDS011;36505;52.512;13.460;2023-07-08T12:08:56;3.63;;;2.20;;
50549;SDS011;36505;52.512;13.460;2023-07-08T12:11:45;3.60;;;2.15;;
50549;SDS011;36505;52.512;13.460;2023-07-08T12:14:12;3.17;;;2.10;;
50549;SDS011;36505;52.512;13.460;2023-07-08T12:16:39;3.28;;;2.00;;
50549;SDS011;36505;52.512;13.460;2023-07-08T12:19:08;4.57;;;2.17;;
50549;SDS011;36505;52.512;13.460;2023-07-08T12:21:42;5.03;;;2.85;;
50549;SDS011;36505;52.512;13.460;2023-07-08T12:24:09;3.55;;;2.10;;
50549;SDS011;36505;52.512;13.460;2023-07-08T12:26:37;7.07;;;2.47;;
50549;SDS011;36505;52.512;13.460;2023-07-08T12:29:02;7.68;;;2.80;;
50549;SDS011;36505;52.512;13.460;2023-07-08T12:31:28;4.18;;;2.45;;
50549;SDS011;36505;52.512;13.460;2023-07-08T12:33:54;4.18;;;2.78;;
50549;SDS011;36505;52.512;13.460;2023-07-08T12:36:21;3.78;;;2.20;;
50549;SDS011;36505;52.512;13.460;2023-07-08T12:38:50;8.07;;;2.38;;
50549;SDS011;36505;52.512;13.460;2023-07-08T12:41:18;4.55;;;2.25;;
50549;SDS011;36505;52.512;13.460;2023-07-08T12:43:46;3.63;;;2.20;;
50549;SDS011;36505;52.512;13.460;2023-07-08T12:46:12;4.70;;;2.20;;
50549;SDS011;36505;52.512;13.460;2023-07-08T12:48:40;9.77;;;2.90;;
50549;SDS011;36505;52.512;13.460;2023-07-08T12:51:09;4.60;;;2.50;;
50549;SDS011;36505;52.512;13.460;2023-07-08T12:53:37;4.90;;;2.20;;
50549;SDS011;36505;52.512;13.460;2023-07-08T12:56:02;5.35;;;2.50;;
50549;SDS011;36505;52.512;13.460;2023-07-08T12:58:29;5.38;;;2.22;;
50549;SDS011;36505;52.512;13.460;2023-07-08T13:00:58;7.32;;;3.17;;
50549;SDS011;36505;52.512;13.460;2023-07-08T13:03:26;4.88;;;2.85;;
50549;SDS011;36505;52.512;13.460;2023-07-08T13:05:55;8.73;;;5.85;;
50549;SDS011;36505;52.512;13.460;2023-07-08T13:08:22;5.13;;;2.60;;
50549;SDS011;36505;52.512;13.460;2023-07-08T13:10:57;4.40;;;2.65;;
50549;SDS011;36505;52.512;13.460;2023-07-08T13:13:28;4.65;;;2.47;;
50549;SDS011;36505;52.512;13.460;2023-07-08T13:16:03;6.05;;;2.53;;
50549;SDS011;36505;52.512;13.460;2023-07-08T13:18:33;4.78;;;2.20;;
50549;SDS011;36505;52.512;13.460;2023-07-08T13:23:28;6.22;;;2.72;;
50549;SDS011;36505;52.512;13.460;2023-07-08T13:25:54;3.70;;;2.53;;
50549;SDS011;36505;52.512;13.460;2023-07-08T13:28:23;5.03;;;2.78;;
50549;SDS011;36505;52.512;13.460;2023-07-08T13:31:12;4.07;;;2.50;;
50549;SDS011;36505;52.512;13.460;2023-07-08T13:33:46;4.70;;;2.67;;
50549;SDS011;36505;52.512;13.460;2023-07-08T13:36:13;5.33;;;3.10;;
50549;SDS011;36505;52.512;13.460;2023-07-08T13:38:42;4.85;;;2.80;;
50549;SDS011;36505;52.512;13.460;2023-07-08T13:41:09;6.00;;;3.08;;
50549;SDS011;36505;52.512;13.460;2023-07-08T13:43:38;13.63;;;3.35;;
50549;SDS011;36505;52.512;13.460;2023-07-08T13:46:25;2.78;;;2.10;;
50549;SDS011;36505;52.512;13.460;2023-07-08T13:48:54;7.38;;;2.83;;
50549;SDS011;36505;52.512;13.460;2023-07-08T13:51:21;7.90;;;2.42;;
50549;SDS011;36505;52.512;13.460;2023-07-08T13:53:49;7.50;;;2.40;;
50549;SDS011;36505;52.512;13.460;2023-07-08T13:58:46;5.28;;;2.97;;
50549;SDS011;36505;52.512;13.460;2023-07-08T14:01:21;5.38;;;2.15;;
50549;SDS011;36505;52.512;13.460;2023-07-08T14:03:49;3.88;;;2.70;;
50549;SDS011;36505;52.512;13.460;2023-07-08T14:06:16;7.03;;;2.17;;
50549;SDS011;36505;52.512;13.460;2023-07-08T14:08:43;3.30;;;2.33;;
50549;SDS011;36505;52.512;13.460;2023-07-08T14:11:08;5.07;;;2.70;;
50549;SDS011;36505;52.512;13.460;2023-07-08T14:13:34;6.82;;;2.55;;
50549;SDS011;36505;52.512;13.460;2023-07-08T14:16:00;6.38;;;3.50;;
50549;SDS011;36505;52.512;13.460;2023-07-08T14:18:26;3.90;;;2.45;;
50549;SDS011;36505;52.512;13.460;2023-07-08T14:20:52;4.00;;;2.55;;
50549;SDS011;36505;52.512;13.460;2023-07-08T14:23:18;3.25;;;2.15;;
50549;SDS011;36505;52.512;13.460;2023-07-08T14:25:45;4.03;;;2.30;;
50549;SDS011;36505;52.512;13.460;2023-07-08T14:28:10;5.22;;;2.20;;
50549;SDS011;36505;52.512;13.460;2023-07-08T14:30:37;4.57;;;2.42;;
50549;SDS011;36505;52.512;13.460;2023-07-08T14:33:10;4.55;;;2.65;;
50549;SDS011;36505;52.512;13.460;2023-07-08T14:35:36;6.88;;;3.70;;
50549;SDS011;36505;52.512;13.460;2023-07-08T14:38:02;5.70;;;2.83;;
50549;SDS011;36505;52.512;13.460;2023-07-08T14:40:31;5.40;;;2.08;;
50549;SDS011;36505;52.512;13.460;2023-07-08T14:43:00;4.22;;;2.55;;
50549;SDS011;36505;52.512;13.460;2023-07-08T14:45:28;4.03;;;2.50;;
50549;SDS011;36505;52.512;13.460;2023-07-08T14:47:55;6.03;;;3.45;;
50549;SDS011;36505;52.512;13.460;2023-07-08T14:50:21;6.18;;;2.40;;
50549;SDS011;36505;52.512;13.460;2023-07-08T14:52:46;4.60;;;2.40;;
50549;SDS011;36505;52.512;13.460;2023-07-08T14:55:12;3.95;;;2.30;;
50549;SDS011;36505;52.512;13.460;2023-07-08T14:57:42;4.47;;;3.00;;
50549;SDS011;36505;52.512;13.460;2023-07-08T15:00:11;4.72;;;2.85;;
50549;SDS011;36505;52.512;13.460;2023-07-08T15:02:38;5.05;;;2.28;;
50549;SDS011;36505;52.512;13.460;2023-07-08T15:05:09;7.32;;;2.65;;
50549;SDS011;36505;52.512;13.460;2023-07-08T15:07:38;4.10;;;2.95;;
50549;SDS011;36505;52.512;13.460;2023-07-08T15:10:05;4.88;;;2.75;;
50549;SDS011;36505;52.512;13.460;2023-07-08T15:12:32;5.68;;;2.90;;
50549;SDS011;36505;52.512;13.460;2023-07-08T15:14:57;5.25;;;2.90;;
50549;SDS011;36505;52.512;13.460;2023-07-08T15:17:23;3.35;;;2.70;;
50549;SDS011;36505;52.512;13.460;2023-07-08T15:19:48;3.78;;;2.53;;
50549;SDS011;36505;52.512;13.460;2023-07-08T15:22:14;5.55;;;3.05;;
50549;SDS011;36505;52.512;13.460;2023-07-08T15:24:39;6.43;;;2.70;;
50549;SDS011;36505;52.512;13.460;2023-07-08T15:27:05;4.40;;;2.75;;
50549;SDS011;36505;52.512;13.460;2023-07-08T15:29:31;3.88;;;2.65;;
50549;SDS011;36505;52.512;13.460;2023-07-08T15:31:58;4.53;;;2.72;;
50549;SDS011;36505;52.512;13.460;2023-07-08T15:34:23;5.50;;;3.28;;
50549;SDS011;36505;52.512;13.460;2023-07-08T15:36:49;12.73;;;2.78;;
50549;SDS011;36505;52.512;13.460;2023-07-08T15:39:15;4.88;;;2.40;;
50549;SDS011;36505;52.512;13.460;2023-07-08T15:41:40;6.75;;;2.75;;
50549;SDS011;36505;52.512;13.460;2023-07-08T15:44:08;4.38;;;2.63;;
50549;SDS011;36505;52.512;13.460;2023-07-08T15:46:36;7.97;;;2.55;;
50549;SDS011;36505;52.512;13.460;2023-07-08T15:51:42;3.38;;;2.40;;
50549;SDS011;36505;52.512;13.460;2023-07-08T15:54:07;3.58;;;2.08;;
50549;SDS011;36505;52.512;13.460;2023-07-08T15:56:33;4.40;;;2.90;;
50549;SDS011;36505;52.512;13.460;2023-07-08T15:58:58;7.30;;;3.45;;
50549;SDS011;36505;52.512;13.460;2023-07-08T16:01:24;4.55;;;2.60;;
50549;SDS011;36505;52.512;13.460;2023-07-08T16:03:50;3.85;;;2.38;;
50549;SDS011;36505;52.512;13.460;2023-07-08T16:06:16;5.40;;;2.70;;
50549;SDS011;36505;52.512;13.460;2023-07-08T16:08:43;6.20;;;3.05;;